Time;durP1;ratioP1;P1;durP2;ratioP2;P2;SDS_P1;SDS_P2;PMS_P1;PMS_P2;Temp;Humidity;BMP_temperature;BMP_pressure;BME280_temperature;BME280_humidity;BME280_pressure;Samples;Min_cycle;Max_cycle;Signal;HPM_P1;HPM_P2
2022/10/14 00:00:39;;;;;;;90.07;23.10;;;14.80;99.90;;;;;;5070267;28;21010;-63
2022/10/14 00:03:07;;;;;;;139.97;29.13;;;;;;;;;;5067760;28;20470;-62
2022/10/14 00:05:34;;;;;;;111.50;26.23;;;;;;;;;;5069972;28;20904;-63
2022/10/14 00:08:01;;;;;;;130.03;29.20;;;;;;;;;;5061220;28;21018;-62
2022/10/14 00:10:28;;;;;;;65.23;19.50;;;;;;;;;;5069110;28;20574;-63
2022/10/14 00:12:56;;;;;;;141.93;28.93;;;14.80;99.90;;;;;;5068994;28;20804;-63
2022/10/14 00:15:23;;;;;;;77.30;22.70;;;;;;;;;;5070401;28;21419;-62
2022/10/14 00:17:50;;;;;;;101.93;26.93;;;;;;;;;;5065241;28;20478;-63
2022/10/14 00:20:17;;;;;;;80.80;23.30;;;;;;;;;;5058848;28;20521;-62
2022/10/14 00:22:44;;;;;;;102.07;26.03;;;;;;;;;;5067369;28;21074;-61
2022/10/14 00:25:11;;;;;;;106.60;26.77;;;;;;;;;;5065458;28;21033;-62
2022/10/14 00:27:38;;;;;;;109.63;25.03;;;;;;;;;;5067349;28;20471;-61
2022/10/14 00:30:07;;;;;;;126.83;29.23;;;14.90;99.90;;;;;;5067583;28;21046;-61
2022/10/14 00:32:34;;;;;;;108.07;27.10;;;;;;;;;;5066216;28;20482;-62
2022/10/14 00:35:01;;;;;;;124.87;26.50;;;;;;;;;;5072295;28;20479;-61
2022/10/14 00:37:29;;;;;;;60.17;22.27;;;;;;;;;;5061549;28;20832;-61
2022/10/14 00:39:56;;;;;;;142.27;30.53;;;;;;;;;;5074817;28;21066;-62
2022/10/14 00:42:23;;;;;;;94.70;24.70;;;;;;;;;;5064831;28;21005;-61
2022/10/14 00:45:12;;;;;;;132.40;30.30;;;14.80;99.90;;;;;;5073555;28;20538;-63
2022/10/14 00:47:40;;;;;;;105.30;24.90;;;14.70;99.90;;;;;;5071278;28;21065;-62
2022/10/14 00:50:07;;;;;;;125.63;28.43;;;14.70;99.90;;;;;;5069626;28;20515;-62
2022/10/14 00:52:34;;;;;;;137.10;29.27;;;;;;;;;;5066152;28;20481;-62
2022/10/14 00:55:03;;;;;;;176.30;34.67;;;14.60;99.90;;;;;;5070551;28;20501;-62
2022/10/14 00:57:31;;;;;;;105.97;24.47;;;;;;;;;;5069766;28;20520;-61
2022/10/14 01:00:06;;;;;;;180.97;33.00;;;14.80;99.90;;;;;;5073238;28;20482;-61
2022/10/14 01:02:34;;;;;;;123.60;28.20;;;12.20;99.90;;;;;;5072225;28;20824;-62
2022/10/14 01:05:02;;;;;;;161.83;29.53;;;14.80;99.90;;;;;;5070374;28;20482;-62
2022/10/14 01:07:43;;;;;;;94.27;23.43;;;14.80;99.90;;;;;;5069583;28;20847;-62
2022/10/14 01:10:18;;;;;;;107.73;22.57;;;14.80;99.90;;;;;;5068368;28;20488;-62
2022/10/14 01:13:01;;;;;;;149.10;26.93;;;14.90;99.90;;;;;;5061551;28;20470;-61
2022/10/14 01:15:37;;;;;;;114.37;26.37;;;15.00;99.90;;;;;;5073185;28;20474;-61
2022/10/14 01:18:19;;;;;;;190.10;32.20;;;15.00;99.90;;;;;;5068810;28;20481;-62
2022/10/14 01:21:06;;;;;;;137.20;26.87;;;15.00;99.90;;;;;;5060567;28;20998;-62
2022/10/14 01:23:54;;;;;;;131.07;27.27;;;;;;;;;;5072182;28;20485;-61
2022/10/14 01:26:29;;;;;;;175.63;30.53;;;;;;;;;;5069009;28;20799;-62
2022/10/14 01:29:05;;;;;;;198.50;35.30;;;;;;;;;;5069204;28;20746;-62
2022/10/14 01:31:35;;;;;;;170.13;31.73;;;;;;;;;;5068178;28;20682;-62
2022/10/14 01:34:06;;;;;;;239.70;35.90;;;;;;;;;;5073961;28;20528;-61
2022/10/14 01:36:37;;;;;;;172.77;28.83;;;;;;;;;;5068655;28;22856;-62
2022/10/14 01:39:07;;;;;;;204.20;32.57;;;;;;;;;;5074268;28;20490;-62
2022/10/14 01:41:36;;;;;;;187.13;30.13;;;;;;;;;;5075874;28;20484;-61
2022/10/14 01:44:04;;;;;;;223.13;32.23;;;;;;;;;;5075921;28;20517;-62
2022/10/14 01:46:32;;;;;;;163.17;27.30;;;;;;;;;;5072797;28;20497;-61
2022/10/14 01:49:02;;;;;;;239.10;34.53;;;;;;;;;;5075426;28;20486;-61
2022/10/14 01:51:32;;;;;;;158.63;26.97;;;;;;;;;;5076558;28;20819;-61
2022/10/14 01:54:00;;;;;;;260.30;33.60;;;;;;;;;;5073808;28;20661;-62
2022/10/14 01:56:28;;;;;;;205.77;29.97;;;;;;;;;;5071419;28;20508;-62
2022/10/14 01:58:55;;;;;;;275.37;35.27;;;;;;;;;;5077375;28;20481;-61
2022/10/14 02:01:24;;;;;;;157.57;26.87;;;;;;;;;;5074574;28;20478;-61
2022/10/14 02:03:51;;;;;;;241.07;30.87;;;;;;;;;;5074137;28;20600;-61
2022/10/14 02:06:23;;;;;;;239.67;30.33;;;;;;;;;;5070590;28;20481;-61
2022/10/14 02:08:55;;;;;;;259.27;31.73;;;;;;;;;;5073765;28;20525;-61
2022/10/14 02:11:23;;;;;;;215.27;27.33;;;;;;;;;;5072683;28;20489;-61
2022/10/14 02:13:55;;;;;;;170.90;26.23;;;;;;;;;;5075121;28;20469;-61
2022/10/14 02:16:27;;;;;;;275.00;35.23;;;;;;;;;;5070674;28;20679;-61
2022/10/14 02:18:57;;;;;;;186.97;25.27;;;;;;;;;;5073156;28;20486;-61
2022/10/14 02:21:29;;;;;;;214.80;29.80;;;;;;;;;;5073291;28;20474;-61
2022/10/14 02:24:00;;;;;;;287.07;32.73;;;;;;;;;;5075535;28;20483;-61
2022/10/14 02:26:27;;;;;;;242.20;29.33;;;;;;;;;;5069609;28;20474;-61
2022/10/14 02:28:55;;;;;;;314.77;34.27;;;;;;;;;;5070749;28;20509;-61
2022/10/14 02:31:23;;;;;;;225.57;28.77;;;;;;;;;;5065306;28;20505;-61
2022/10/14 02:33:52;;;;;;;177.93;23.67;;;;;;;;;;5071599;28;20470;-61
2022/10/14 02:36:21;;;;;;;301.10;34.53;;;;;;;;;;5068655;28;20494;-61
2022/10/14 02:38:50;;;;;;;211.13;25.53;;;;;;;;;;5062590;28;20481;-61
2022/10/14 02:41:19;;;;;;;154.53;22.83;;;;;;;;;;5076130;28;20485;-62
2022/10/14 02:43:46;;;;;;;212.27;25.83;;;;;;;;;;5075243;28;20466;-61
2022/10/14 02:46:14;;;;;;;290.40;30.13;;;;;;;;;;5070814;28;20490;-61
2022/10/14 02:48:41;;;;;;;163.10;20.60;;;;;;;;;;5064088;28;20496;-61
2022/10/14 02:51:08;;;;;;;216.70;26.63;;;;;;;;;;5073098;28;20781;-61
2022/10/14 02:53:35;;;;;;;226.03;26.03;;;;;;;;;;5075806;28;20478;-61
2022/10/14 02:56:03;;;;;;;386.53;41.43;;;;;;;;;;5071868;28;20494;-61
2022/10/14 02:58:30;;;;;;;234.37;28.60;;;;;;;;;;5049793;28;20789;-61
2022/10/14 03:00:57;;;;;;;327.30;34.60;;;;;;;;;;5075159;28;20604;-61
2022/10/14 03:03:24;;;;;;;290.57;27.97;;;;;;;;;;5070478;28;20588;-61
2022/10/14 03:05:52;;;;;;;302.07;29.87;;;;;;;;;;5073329;28;20654;-61
2022/10/14 03:08:19;;;;;;;293.00;27.00;;;;;;;;;;5063685;28;21182;-61
2022/10/14 03:10:47;;;;;;;207.07;25.20;;;;;;;;;;5074250;28;20486;-61
2022/10/14 03:13:15;;;;;;;128.10;25.13;;;15.20;99.90;;;;;;5073652;28;20502;-61
2022/10/14 03:15:42;;;;;;;94.73;21.10;;;;;;;;;;5073621;28;20489;-61
2022/10/14 03:18:09;;;;;;;63.53;20.57;;;;;;;;;;5070056;28;20497;-61
2022/10/14 03:20:36;;;;;;;103.83;26.00;;;;;;;;;;5072919;28;20834;-61
2022/10/14 03:23:03;;;;;;;143.03;28.47;;;;;;;;;;5075247;28;20509;-61
2022/10/14 03:25:30;;;;;;;85.03;23.93;;;;;;;;;;5072474;28;20652;-60
2022/10/14 03:27:57;;;;;;;143.27;29.80;;;;;;;;;;5070580;28;20734;-61
2022/10/14 03:30:26;;;;;;;66.17;20.37;;;15.10;99.90;;;;;;5070172;28;20478;-61
2022/10/14 03:32:52;;;;;;;110.53;25.77;;;15.20;99.90;;;;;;5074223;28;20845;-61
2022/10/14 03:35:19;;;;;;;98.67;24.87;;;;;;;;;;5074165;28;20486;-61
2022/10/14 03:37:46;;;;;;;105.50;23.00;;;;;;;;;;5065302;28;20482;-61
2022/10/14 03:40:13;;;;;;;114.87;20.87;;;15.20;99.90;;;;;;5070709;28;20720;-61
2022/10/14 03:42:41;;;;;;;164.53;22.30;;;;;;;;;;5062882;28;20471;-61
2022/10/14 03:45:08;;;;;;;79.77;18.67;;;15.20;99.90;;;;;;5073945;28;20485;-61
2022/10/14 03:47:36;;;;;;;89.53;23.13;;;15.10;99.90;;;;;;5070101;28;20486;-61
2022/10/14 03:50:03;;;;;;;133.53;27.53;;;15.10;99.90;;;;;;5073496;28;20482;-61
2022/10/14 03:52:31;;;;;;;68.37;19.50;;;15.20;99.90;;;;;;5074335;28;21127;-60
2022/10/14 03:54:58;;;;;;;102.57;24.80;;;13.80;99.90;;;;;;5073165;28;20849;-61
2022/10/14 03:57:25;;;;;;;57.57;20.00;;;15.30;99.90;;;;;;5070598;28;20484;-62
2022/10/14 03:59:51;;;;;;;96.47;22.57;;;15.40;99.90;;;;;;5074067;28;20491;-62
2022/10/14 04:02:18;;;;;;;57.43;20.37;;;15.50;99.90;;;;;;5073585;28;20489;-62
2022/10/14 04:04:46;;;;;;;55.50;17.07;;;15.60;99.90;;;;;;5072045;28;20486;-61
2022/10/14 04:07:13;;;;;;;86.30;19.73;;;15.70;99.90;;;;;;5065994;28;20486;-62
2022/10/14 04:09:39;;;;;;;55.53;17.63;;;15.80;99.90;;;;;;5063714;28;20802;-62
2022/10/14 04:12:07;;;;;;;95.27;21.30;;;;;;;;;;5072196;28;20612;-62
2022/10/14 04:14:34;;;;;;;100.53;19.80;;;;;;;;;;5073011;28;20838;-62
2022/10/14 04:17:00;;;;;;;57.77;19.53;;;15.90;99.90;;;;;;5068517;28;20470;-62
2022/10/14 04:19:27;;;;;;;61.37;17.30;;;;;;;;;;5074824;28;20975;-62
2022/10/14 04:21:55;;;;;;;119.83;23.67;;;16.00;99.90;;;;;;5058588;28;20837;-61
2022/10/14 04:24:22;;;;;;;55.57;16.37;;;;;;;;;;5070755;28;21010;-61
2022/10/14 04:26:50;;;;;;;68.33;20.87;;;15.90;99.90;;;;;;5069184;28;20577;-62
2022/10/14 04:29:17;;;;;;;47.77;16.07;;;15.90;99.90;;;;;;5072438;28;20854;-62
2022/10/14 04:31:44;;;;;;;47.80;17.87;;;15.80;99.90;;;;;;5072458;28;20489;-62
2022/10/14 04:34:11;;;;;;;34.50;14.80;;;15.90;99.90;;;;;;5073373;28;21033;-62
2022/10/14 04:36:38;;;;;;;41.63;16.27;;;15.80;99.90;;;;;;5065221;28;20506;-63
2022/10/14 04:39:06;;;;;;;38.00;16.80;;;15.80;99.90;;;;;;5070924;28;21647;-63
2022/10/14 04:41:33;;;;;;;36.80;16.67;;;15.80;99.90;;;;;;5072785;28;20478;-63
2022/10/14 04:44:00;;;;;;;52.10;20.10;;;15.70;99.90;;;;;;5073103;28;20478;-63
2022/10/14 04:46:26;;;;;;;29.00;15.30;;;15.70;99.90;;;;;;5068003;28;20482;-63
2022/10/14 04:48:53;;;;;;;53.40;21.23;;;15.70;99.90;;;;;;5073090;28;21175;-63
2022/10/14 04:51:20;;;;;;;31.80;15.70;;;15.70;99.90;;;;;;5073273;28;20840;-62
2022/10/14 04:53:47;;;;;;;36.80;16.10;;;15.70;99.90;;;;;;5069721;28;20752;-63
2022/10/14 04:56:15;;;;;;;49.07;20.17;;;15.70;99.90;;;;;;5069925;28;21129;-62
2022/10/14 04:58:42;;;;;;;29.23;14.53;;;15.70;99.90;;;;;;5072777;28;20797;-63
2022/10/14 05:01:08;;;;;;;28.77;14.90;;;15.60;99.90;;;;;;5072761;28;20470;-63
2022/10/14 05:03:35;;;;;;;32.10;15.13;;;15.70;99.90;;;;;;5072771;28;20478;-63
2022/10/14 05:06:02;;;;;;;63.03;22.83;;;15.60;99.90;;;;;;5072045;28;20896;-63
2022/10/14 05:08:28;;;;;;;30.47;14.80;;;15.60;99.90;;;;;;5067650;28;20687;-63
2022/10/14 05:10:55;;;;;;;43.87;18.30;;;15.60;99.90;;;;;;5072662;28;20847;-63
2022/10/14 05:13:23;;;;;;;38.30;15.90;;;15.70;99.90;;;;;;5062310;28;20692;-63
2022/10/14 05:15:50;;;;;;;28.47;16.13;;;15.60;99.90;;;;;;5082997;28;20869;-62
2022/10/14 05:18:16;;;;;;;37.00;16.70;;;15.60;99.90;;;;;;5069857;28;20868;-62
2022/10/14 05:20:43;;;;;;;37.73;17.80;;;15.60;99.90;;;;;;5062034;28;20507;-62
2022/10/14 05:23:10;;;;;;;29.77;14.10;;;15.60;99.90;;;;;;5069651;28;20836;-63
2022/10/14 05:25:37;;;;;;;37.87;17.60;;;15.60;99.90;;;;;;5068828;28;20482;-63
2022/10/14 05:28:04;;;;;;;49.87;19.77;;;15.50;99.90;;;;;;5066244;28;21064;-63
2022/10/14 05:30:33;;;;;;;33.13;15.20;;;15.60;99.90;;;;;;5061389;28;20474;-62
2022/10/14 05:33:00;;;;;;;54.97;19.47;;;13.30;99.90;;;;;;5071216;28;20474;-63
2022/10/14 05:35:26;;;;;;;32.73;15.93;;;15.60;99.90;;;;;;5071831;28;20501;-63
2022/10/14 05:37:55;;;;;;;29.47;15.20;;;15.60;99.90;;;;;;5068098;28;20479;-62
2022/10/14 05:40:22;;;;;;;29.57;16.97;;;15.50;99.90;;;;;;5073772;28;20510;-63
2022/10/14 05:42:49;;;;;;;35.13;15.37;;;15.50;99.90;;;;;;5061323;28;20489;-63
2022/10/14 05:45:16;;;;;;;30.37;16.57;;;15.50;99.90;;;;;;5063117;28;20474;-63
2022/10/14 05:47:45;;;;;;;44.03;29.07;;;15.40;99.90;;;;;;5070645;28;20482;-63
2022/10/14 05:50:12;;;;;;;41.77;23.70;;;15.40;99.90;;;;;;5068656;28;20486;-63
2022/10/14 05:52:39;;;;;;;39.33;20.47;;;15.40;99.90;;;;;;5066895;28;20821;-62
2022/10/14 05:55:07;;;;;;;51.00;22.43;;;15.50;99.90;;;;;;5084846;28;20490;-62
2022/10/14 05:57:34;;;;;;;53.03;21.53;;;15.50;99.90;;;;;;5069373;28;20905;-63
2022/10/14 06:00:01;;;;;;;43.03;17.43;;;15.60;99.90;;;;;;5062756;28;20493;-63
2022/10/14 06:02:28;;;;;;;34.10;15.90;;;15.50;99.90;;;;;;5075655;28;20485;-62
2022/10/14 06:04:57;;;;;;;45.43;19.73;;;15.50;99.90;;;;;;5063945;28;20486;-63
2022/10/14 06:07:24;;;;;;;38.50;16.93;;;15.60;99.90;;;;;;5069814;28;20830;-63
2022/10/14 06:09:51;;;;;;;47.03;18.87;;;;;;;;;;5075433;28;20485;-63
2022/10/14 06:12:17;;;;;;;28.70;14.90;;;15.60;99.90;;;;;;5076933;28;20478;-63
2022/10/14 06:14:44;;;;;;;42.27;17.57;;;15.60;99.90;;;;;;5071811;28;20825;-63
2022/10/14 06:17:11;;;;;;;39.23;15.97;;;15.60;99.90;;;;;;5069423;28;20497;-62
2022/10/14 06:19:38;;;;;;;37.03;16.73;;;15.60;99.90;;;;;;5069969;28;20497;-63
2022/10/14 06:22:06;;;;;;;50.43;20.43;;;15.70;99.90;;;;;;5075367;28;20989;-63
2022/10/14 06:24:32;;;;;;;29.40;14.70;;;15.60;99.90;;;;;;5075753;28;20871;-62
2022/10/14 06:26:59;;;;;;;46.40;19.60;;;15.60;99.90;;;;;;5070708;28;20558;-63
2022/10/14 06:29:30;;;;;;;29.07;13.27;;;15.60;99.90;;;;;;5061751;28;21006;-63
2022/10/14 06:31:56;;;;;;;37.37;18.10;;;15.60;99.90;;;;;;5072941;28;20906;-63
2022/10/14 06:34:23;;;;;;;24.60;12.63;;;15.50;99.90;;;;;;5066241;28;20479;-63
2022/10/14 06:36:50;;;;;;;32.90;16.93;;;15.40;99.90;;;;;;5080911;28;20490;-62
2022/10/14 06:39:18;;;;;;;27.83;14.70;;;15.20;99.90;;;;;;5075679;28;20832;-62
2022/10/14 06:41:45;;;;;;;26.93;15.43;;;15.10;99.90;;;;;;5076000;28;20958;-62
2022/10/14 06:44:12;;;;;;;24.83;14.60;;;14.90;99.90;;;;;;5075104;28;21096;-62
2022/10/14 06:46:39;;;;;;;29.80;15.43;;;14.90;99.90;;;;;;5071474;28;20516;-62
2022/10/14 06:49:06;;;;;;;32.47;16.70;;;14.90;99.90;;;;;;5074460;28;20817;-63
2022/10/14 06:51:33;;;;;;;32.63;13.40;;;15.00;99.90;;;;;;5074171;28;20489;-62
2022/10/14 06:53:59;;;;;;;35.13;17.83;;;15.10;99.90;;;;;;5074209;28;21055;-63
2022/10/14 06:56:28;;;;;;;26.40;13.50;;;15.20;99.90;;;;;;5070437;28;20487;-63
2022/10/14 06:58:55;;;;;;;39.17;19.83;;;15.40;99.90;;;;;;5073911;28;20471;-63
2022/10/14 07:01:22;;;;;;;28.40;12.40;;;15.50;99.90;;;;;;5073377;28;20755;-63
2022/10/14 07:03:50;;;;;;;19.97;12.77;;;;;;;;;;5071440;28;20474;-63
2022/10/14 07:06:16;;;;;;;33.90;17.10;;;15.70;99.90;;;;;;5066907;28;20485;-62
2022/10/14 07:08:43;;;;;;;25.10;13.53;;;15.80;99.90;;;;;;5073965;28;20902;-63
2022/10/14 07:11:10;;;;;;;20.03;12.20;;;15.80;99.90;;;;;;5074506;28;20494;-63
2022/10/14 07:13:38;;;;;;;28.17;13.40;;;15.70;99.90;;;;;;5075170;28;20482;-63
2022/10/14 07:16:06;;;;;;;39.70;19.70;;;15.60;99.90;;;;;;5072409;28;20482;-63
2022/10/14 07:18:33;;;;;;;17.23;11.77;;;15.50;99.90;;;;;;5061141;28;20488;-63
2022/10/14 07:21:02;;;;;;;46.70;23.20;;;15.50;99.90;;;;;;5058607;28;22286;-63
2022/10/14 07:23:29;;;;;;;20.97;12.47;;;15.50;99.90;;;;;;5063813;28;20616;-63
2022/10/14 07:25:56;;;;;;;31.00;17.30;;;15.40;99.90;;;;;;5062167;28;20993;-63
2022/10/14 07:28:23;;;;;;;28.30;11.77;;;15.40;99.90;;;;;;5062487;28;20561;-63
2022/10/14 07:30:58;;;;;;;22.90;11.53;;;15.30;99.90;;;;;;5068245;28;20512;-63
2022/10/14 07:33:25;;;;;;;39.97;14.80;;;15.30;99.90;;;;;;5070171;28;20466;-63
2022/10/14 07:35:52;;;;;;;31.57;15.90;;;15.20;99.90;;;;;;5067723;28;20731;-63
2022/10/14 07:38:19;;;;;;;23.27;10.53;;;15.20;99.90;;;;;;5068286;28;20489;-63
2022/10/14 07:40:45;;;;;;;27.27;11.33;;;15.20;99.90;;;;;;5070399;28;20724;-61
2022/10/14 07:43:12;;;;;;;28.33;15.13;;;15.20;99.90;;;;;;5070339;28;20489;-63
2022/10/14 07:45:42;;;;;;;33.43;16.60;;;15.10;99.90;;;;;;5068766;28;20995;-63
2022/10/14 07:48:10;;;;;;;24.13;13.33;;;15.10;99.90;;;;;;5067586;28;20710;-63
2022/10/14 07:50:37;;;;;;;24.47;13.70;;;11.70;99.90;;;;;;5073401;28;20470;-63
2022/10/14 07:53:04;;;;;;;35.53;14.40;;;15.10;99.90;;;;;;5069066;28;20482;-64
2022/10/14 07:55:31;;;;;;;18.60;10.77;;;15.10;99.90;;;;;;5070302;28;20481;-63
2022/10/14 07:57:57;;;;;;;31.20;16.10;;;15.10;99.90;;;;;;5067395;28;20478;-62
2022/10/14 08:00:24;;;;;;;17.83;10.80;;;15.10;99.90;;;;;;5069951;28;20470;-63
2022/10/14 08:02:51;;;;;;;29.23;15.00;;;15.10;99.90;;;;;;5069380;28;20466;-62
2022/10/14 08:05:19;;;;;;;18.30;10.37;;;15.10;99.90;;;;;;5070668;28;20987;-62
2022/10/14 08:07:45;;;;;;;24.53;12.17;;;15.20;99.90;;;;;;5064593;28;20513;-62
2022/10/14 08:10:12;;;;;;;15.13;9.90;;;15.30;99.90;;;;;;5070303;28;20497;-62
2022/10/14 08:12:39;;;;;;;19.57;12.50;;;15.50;99.90;;;;;;5070510;28;20477;-62
2022/10/14 08:15:06;;;;;;;26.73;14.43;;;15.50;99.90;;;;;;5076135;28;20481;-62
2022/10/14 08:17:33;;;;;;;26.00;13.87;;;15.40;99.90;;;;;;5073756;28;20490;-62
2022/10/14 08:20:00;;;;;;;34.37;14.40;;;15.40;99.90;;;;;;5074366;28;20890;-62
2022/10/14 08:22:28;;;;;;;19.80;11.60;;;15.20;99.90;;;;;;5079397;28;20487;-61
2022/10/14 08:24:55;;;;;;;34.80;17.70;;;15.30;99.90;;;;;;5082510;28;20473;-63
2022/10/14 08:27:21;;;;;;;16.20;11.13;;;15.20;99.90;;;;;;5075737;28;20858;-62
2022/10/14 08:29:48;;;;;;;23.70;14.33;;;15.20;99.90;;;;;;5079339;28;20485;-63
2022/10/14 08:32:15;;;;;;;25.87;15.73;;;15.10;99.90;;;;;;5064281;28;20841;-62
2022/10/14 08:34:41;;;;;;;26.50;15.60;;;15.10;99.90;;;;;;5066622;28;20474;-62
2022/10/14 08:37:10;;;;;;;36.70;16.70;;;15.20;99.90;;;;;;5062290;28;20474;-62
2022/10/14 08:39:38;;;;;;;27.17;15.17;;;15.30;99.90;;;;;;5062551;28;20473;-61
2022/10/14 08:42:29;;;;;;;19.40;12.10;;;15.30;99.90;;;;;;5064339;28;20483;-62
2022/10/14 08:45:01;;;;;;;33.33;17.70;;;15.20;99.90;;;;;;5062425;28;20473;-61
2022/10/14 08:47:34;;;;;;;35.43;12.33;;;16.70;99.90;;;;;;5063531;28;20931;-62
2022/10/14 08:50:04;;;;;;;23.63;12.80;;;15.10;99.90;;;;;;5065900;28;20486;-62
2022/10/14 08:52:37;;;;;;;18.80;11.40;;;15.10;99.90;;;;;;5064326;28;20484;-61
2022/10/14 08:55:20;;;;;;;26.13;13.17;;;15.20;99.90;;;;;;5065604;28;20479;-62
2022/10/14 08:57:52;;;;;;;25.33;15.80;;;15.10;99.90;;;;;;5050618;28;20501;-61
2022/10/14 09:00:20;;;;;;;28.50;12.80;;;15.10;99.90;;;;;;5066922;28;20921;-61
2022/10/14 09:02:49;;;;;;;26.73;15.07;;;17.00;99.90;;;;;;5067153;28;20474;-62
2022/10/14 09:05:17;;;;;;;25.20;14.17;;;15.10;99.90;;;;;;5054016;28;20769;-61
2022/10/14 09:07:45;;;;;;;22.27;10.97;;;15.10;99.90;;;;;;5054888;28;20478;-61
2022/10/14 09:10:23;;;;;;;19.20;12.30;;;15.10;99.90;;;;;;5066175;28;20490;-61
2022/10/14 09:12:52;;;;;;;27.93;12.93;;;15.10;99.90;;;;;;5066930;28;20838;-60
2022/10/14 09:15:24;;;;;;;23.67;13.97;;;15.10;99.90;;;;;;5067589;28;20902;-61
2022/10/14 09:18:01;;;;;;;24.30;14.57;;;15.10;99.90;;;;;;5066898;28;20490;-61
2022/10/14 09:20:28;;;;;;;21.20;11.67;;;15.10;99.90;;;;;;5059620;28;20486;-61
2022/10/14 09:23:11;;;;;;;30.20;16.93;;;15.10;99.90;;;;;;5068094;28;20976;-61
2022/10/14 09:25:44;;;;;;;29.90;15.47;;;14.90;99.90;;;;;;5065914;28;20485;-61
2022/10/14 09:28:11;;;;;;;23.67;15.73;;;15.00;99.90;;;;;;5072921;28;20494;-61
2022/10/14 09:30:39;;;;;;;22.97;14.30;;;15.00;99.90;;;;;;5070124;28;23570;-61
2022/10/14 09:33:12;;;;;;;27.87;15.67;;;15.10;99.90;;;;;;5069780;28;21133;-61
2022/10/14 09:35:41;;;;;;;19.70;13.23;;;15.10;99.90;;;;;;5069246;28;20590;-63
2022/10/14 09:38:10;;;;;;;36.27;14.10;;;15.20;99.90;;;;;;5062792;28;20509;-63
2022/10/14 09:40:40;;;;;;;16.93;12.00;;;15.30;99.90;;;;;;5069937;28;20481;-62
2022/10/14 09:43:16;;;;;;;20.07;14.17;;;15.20;99.90;;;;;;5060633;28;20987;-62
2022/10/14 09:45:52;;;;;;;18.10;11.33;;;15.20;99.90;;;;;;5072101;28;20486;-62
2022/10/14 09:48:32;;;;;;;16.60;11.30;;;15.20;99.90;;;;;;5058375;28;20470;-62
2022/10/14 09:51:01;;;;;;;20.50;14.33;;;15.20;99.90;;;;;;5077972;28;20469;-61
2022/10/14 09:53:29;;;;;;;14.00;10.50;;;15.20;99.90;;;;;;5071737;28;20501;-61
2022/10/14 09:56:01;;;;;;;19.00;11.53;;;15.30;99.90;;;;;;5071463;28;20970;-61
2022/10/14 09:58:32;;;;;;;12.80;9.50;;;15.20;99.90;;;;;;5069274;28;20527;-62
2022/10/14 10:01:01;;;;;;;24.60;12.93;;;15.40;99.90;;;;;;5072786;28;20489;-62
2022/10/14 10:03:31;;;;;;;21.80;9.90;;;15.40;99.90;;;;;;5072612;28;20480;-61
2022/10/14 10:06:07;;;;;;;18.23;12.60;;;15.50;99.90;;;;;;5071681;28;20486;-61
2022/10/14 10:08:35;;;;;;;18.43;9.80;;;15.60;99.90;;;;;;5070625;28;21016;-61
2022/10/14 10:11:07;;;;;;;17.90;11.03;;;15.60;99.90;;;;;;5064628;28;20475;-62
2022/10/14 10:13:42;;;;;;;12.93;9.10;;;17.60;99.90;;;;;;5084699;28;20474;-62
2022/10/14 10:16:19;;;;;;;14.90;8.27;;;15.70;99.90;;;;;;5067847;28;20477;-62
2022/10/14 10:18:46;;;;;;;12.33;8.57;;;15.70;99.90;;;;;;5069440;28;20466;-62
2022/10/14 10:21:18;;;;;;;19.57;9.17;;;15.70;99.90;;;;;;5071369;28;20489;-63
2022/10/14 10:23:51;;;;;;;16.00;7.87;;;15.70;99.90;;;;;;5068102;28;20475;-62
2022/10/14 10:26:24;;;;;;;15.50;10.63;;;;;;;;;;5054598;28;20842;-62
2022/10/14 10:28:52;;;;;;;13.87;10.50;;;15.70;99.90;;;;;;5066701;28;20482;-61
2022/10/14 10:31:33;;;;;;;14.33;7.80;;;15.80;99.90;;;;;;5070468;28;20481;-62
2022/10/14 10:34:11;;;;;;;18.53;9.40;;;15.90;99.90;;;;;;5068836;28;20779;-62
2022/10/14 10:36:46;;;;;;;13.97;8.27;;;15.90;99.90;;;;;;5066796;28;20486;-61
2022/10/14 10:39:23;;;;;;;16.10;6.87;;;16.00;99.90;;;;;;5069893;28;20482;-62
2022/10/14 10:42:03;;;;;;;11.20;8.83;;;16.00;99.90;;;;;;5060087;28;20482;-61
2022/10/14 10:44:50;;;;;;;13.43;6.63;;;16.10;99.90;;;;;;5070105;28;20459;-62
2022/10/14 10:47:30;;;;;;;9.03;7.77;;;16.10;99.90;;;;;;5066904;28;20816;-62
2022/10/14 10:50:15;;;;;;;9.53;8.13;;;16.20;99.90;;;;;;5070473;28;20869;-62
2022/10/14 10:52:56;;;;;;;24.17;8.30;;;16.20;99.90;;;;;;5071326;28;21010;-61
2022/10/14 10:55:34;;;;;;;11.10;6.03;;;17.80;99.90;;;;;;5050760;28;20848;-63
2022/10/14 10:58:11;;;;;;;20.70;7.67;;;16.30;99.90;;;;;;5043990;28;20505;-63
2022/10/14 11:00:48;;;;;;;8.53;6.40;;;16.30;99.90;;;;;;5045728;28;20477;-62
2022/10/14 11:03:24;;;;;;;23.43;6.87;;;;;;;;;;5051063;28;20510;-62
2022/10/14 11:05:58;;;;;;;10.87;8.90;;;16.40;99.90;;;;;;5022521;28;20482;-61
2022/10/14 11:14:36;;;;;;;13.87;7.00;;;16.30;99.90;;;;;;5050882;28;20525;-62
2022/10/14 11:17:11;;;;;;;13.93;7.70;;;16.40;99.90;;;;;;5043535;28;21640;-61
2022/10/14 11:19:46;;;;;;;7.23;6.30;;;16.40;99.90;;;;;;5054172;28;20840;-62
2022/10/14 11:22:27;;;;;;;12.80;6.80;;;16.40;99.90;;;;;;5051129;28;20867;-62
2022/10/14 11:25:02;;;;;;;11.27;9.47;;;16.50;99.90;;;;;;5049425;28;20471;-62
2022/10/14 11:27:37;;;;;;;12.30;6.30;;;16.50;99.90;;;;;;5024190;28;20952;-62
2022/10/14 11:30:14;;;;;;;9.67;6.87;;;16.50;99.90;;;;;;5049348;28;21134;-62
2022/10/14 11:32:52;;;;;;;10.07;5.13;;;16.50;99.90;;;;;;5050278;28;20930;-62
2022/10/14 11:35:32;;;;;;;8.20;7.40;;;16.60;99.90;;;;;;5048590;28;20479;-61
2022/10/14 11:38:09;;;;;;;13.80;7.87;;;16.60;99.90;;;;;;5034182;28;20483;-62
2022/10/14 11:40:45;;;;;;;8.47;7.00;;;16.60;99.90;;;;;;5049417;28;20478;-62
2022/10/14 11:43:22;;;;;;;13.17;6.40;;;16.60;99.90;;;;;;5050658;28;20479;-61
2022/10/14 11:45:59;;;;;;;7.83;7.07;;;16.60;99.90;;;;;;5048171;28;20545;-61
2022/10/14 11:48:32;;;;;;;10.20;5.43;;;16.60;99.90;;;;;;5035151;28;20479;-62
2022/10/14 11:51:06;;;;;;;9.77;8.77;;;16.50;99.90;;;;;;5048140;28;20486;-61
2022/10/14 11:53:43;;;;;;;11.73;5.53;;;16.50;99.90;;;;;;5049900;28;20483;-61
2022/10/14 11:56:19;;;;;;;8.63;7.73;;;16.50;99.90;;;;;;5046640;28;20487;-61
2022/10/14 11:58:47;;;;;;;6.10;5.50;;;17.00;99.90;;;;;;5047755;28;20471;-61
2022/10/14 12:01:19;;;;;;;6.97;6.27;;;16.70;99.90;;;;;;5049794;28;20900;-61
2022/10/14 12:03:54;;;;;;;6.10;5.37;;;16.70;99.90;;;;;;5048560;28;20483;-62
2022/10/14 12:06:26;;;;;;;10.47;5.67;;;16.70;99.90;;;;;;5046724;28;20493;-62
2022/10/14 12:08:57;;;;;;;9.97;7.30;;;16.60;99.90;;;;;;5049472;28;20483;-62
2022/10/14 12:11:30;;;;;;;12.27;4.97;;;16.70;99.90;;;;;;5051982;28;20484;-61
2022/10/14 12:14:05;;;;;;;9.40;7.93;;;16.70;99.90;;;;;;5040610;28;20464;-62
2022/10/14 12:16:34;;;;;;;7.93;5.63;;;;;;;;;;5043472;28;20485;-61
2022/10/14 12:19:01;;;;;;;8.60;7.27;;;16.70;99.90;;;;;;5051190;28;20478;-62
2022/10/14 12:21:35;;;;;;;5.33;4.83;;;16.60;99.90;;;;;;5054290;28;20476;-61
2022/10/14 12:24:06;;;;;;;7.93;6.37;;;16.60;99.90;;;;;;5046569;28;20470;-61
2022/10/14 12:26:51;;;;;;;5.90;5.30;;;16.70;99.90;;;;;;5044232;28;20484;-62
2022/10/14 12:29:21;;;;;;;7.53;4.27;;;16.70;99.90;;;;;;5041513;28;20506;-62
2022/10/14 12:32:06;;;;;;;9.57;5.53;;;16.70;99.90;;;;;;5059454;28;20784;-61
2022/10/14 12:34:35;;;;;;;19.93;4.57;;;16.70;99.90;;;;;;5038654;28;20809;-61
2022/10/14 12:37:36;;;;;;;10.60;7.20;;;;;;;;;;5041319;28;20510;-61
2022/10/14 12:40:28;;;;;;;19.87;6.40;;;16.60;99.90;;;;;;5037643;28;21365;-61
2022/10/14 12:43:29;;;;;;;7.00;5.10;;;16.60;99.90;;;;;;5046256;28;21890;-61
2022/10/14 12:46:13;;;;;;;13.80;7.93;;;16.50;99.90;;;;;;5046677;28;20467;-61
2022/10/14 12:48:49;;;;;;;14.80;5.87;;;;;;;;;;5047952;28;20866;-62
2022/10/14 12:51:17;;;;;;;7.60;4.83;;;;;;;;;;5048132;28;20479;-62
2022/10/14 12:53:56;;;;;;;8.60;6.17;;;16.70;99.90;;;;;;5046851;28;20931;-62
2022/10/14 12:56:33;;;;;;;17.17;6.30;;;16.60;99.90;;;;;;5043798;28;21029;-61
2022/10/14 12:59:03;;;;;;;9.80;7.40;;;16.70;99.90;;;;;;5036959;28;20966;-61
2022/10/14 13:01:31;;;;;;;11.93;4.57;;;16.70;99.90;;;;;;5048565;28;21001;-61
2022/10/14 13:04:00;;;;;;;14.63;5.17;;;;;;;;;;5045457;28;20485;-61
2022/10/14 13:06:34;;;;;;;11.60;4.17;;;16.80;99.90;;;;;;5043863;28;20840;-62
2022/10/14 13:09:20;;;;;;;8.97;7.70;;;;;;;;;;5048285;28;21136;-62
2022/10/14 13:12:35;;;;;;;16.67;5.37;;;16.80;99.90;;;;;;5055655;28;20483;-62
2022/10/14 13:15:03;;;;;;;13.03;8.20;;;16.80;99.90;;;;;;5048462;28;20894;-63